Time;durP1;ratioP1;P1;durP2;ratioP2;P2;SDS_P1;SDS_P2;PMS_P1;PMS_P2;Temp;Humidity;BMP_temperature;BMP_pressure;BME280_temperature;BME280_humidity;BME280_pressure;Samples;Min_cycle;Max_cycle;Signal;HPM_P1;HPM_P2
2021/09/24 00:02:07;;;;;;;;;;;18.40;45.00;;;;;;4345193;32;19969;-37
2021/09/24 00:04:36;;;;;;;;;;;18.30;44.70;;;;;;4345079;33;20077;-37
2021/09/24 00:07:03;;;;;;;;;;;18.30;44.60;;;;;;4345293;33;20058;-38
2021/09/24 00:09:29;;;;;;;;;;;18.30;44.80;;;;;;4345254;33;20050;-38
2021/09/24 00:11:55;;;;;;;;;;;18.40;44.60;;;;;;4344931;33;20151;-39
2021/09/24 00:14:21;;;;;;;;;;;18.40;44.40;;;;;;4344953;33;20057;-37
2021/09/24 00:16:48;;;;;;;;;;;18.40;44.30;;;;;;4344977;33;20398;-39
2021/09/24 00:19:14;;;;;;;;;;;18.40;44.10;;;;;;4318916;33;19972;-38
2021/09/24 00:21:40;;;;;;;;;;;18.40;43.90;;;;;;4345089;33;19982;-39
2021/09/24 00:24:06;;;;;;;;;;;18.40;44.10;;;;;;4344894;33;19963;-38
2021/09/24 00:26:32;;;;;;;;;;;18.40;44.00;;;;;;4345180;33;19979;-37
2021/09/24 00:28:58;;;;;;;;;;;18.40;43.60;;;;;;4345148;33;20044;-38
2021/09/24 00:31:25;;;;;;;;;;;18.40;43.60;;;;;;4344514;33;20390;-37
2021/09/24 00:33:52;;;;;;;;;;;18.40;43.80;;;;;;4344929;33;19973;-37
2021/09/24 00:36:18;;;;;;;;;;;18.40;43.60;;;;;;4330920;33;19971;-38
2021/09/24 00:38:44;;;;;;;;;;;18.50;43.40;;;;;;4344570;33;19982;-37
2021/09/24 00:41:10;;;;;;;;;;;18.50;43.20;;;;;;4344333;33;19974;-38
2021/09/24 00:43:36;;;;;;;;;;;18.40;43.20;;;;;;4344275;33;19986;-38
2021/09/24 00:46:03;;;;;;;;;;;18.40;43.00;;;;;;4344428;33;20471;-38
2021/09/24 00:48:29;;;;;;;;;;;18.50;43.10;;;;;;4350640;32;20444;-38
2021/09/24 00:50:56;;;;;;;;;;;18.50;42.30;;;;;;4345396;32;20520;-37
2021/09/24 00:53:23;;;;;;;;;;;18.50;42.30;;;;;;4359459;32;19966;-37
2021/09/24 00:55:49;;;;;;;;;;;18.50;42.60;;;;;;4360195;32;19978;-37
2021/09/24 00:58:15;;;;;;;;;;;18.50;42.50;;;;;;4360150;32;19974;-37
2021/09/24 01:00:41;;;;;;;;;;;18.50;42.60;;;;;;4346147;32;19981;-37
2021/09/24 01:03:07;;;;;;;;;;;18.50;42.60;;;;;;4359711;32;20104;-37
2021/09/24 01:05:33;;;;;;;;;;;18.60;42.50;;;;;;4359177;32;19966;-37
2021/09/24 01:08:00;;;;;;;;;;;18.60;42.00;;;;;;4326663;33;19998;-37
2021/09/24 01:10:26;;;;;;;;;;;18.50;42.00;;;;;;4314604;33;19979;-38
2021/09/24 01:12:52;;;;;;;;;;;18.60;42.00;;;;;;4302445;33;19979;-37
2021/09/24 01:15:19;;;;;;;;;;;18.60;41.70;;;;;;4327175;33;19987;-37
2021/09/24 01:17:47;;;;;;;;;;;18.60;41.70;;;;;;4326945;33;20060;-37
2021/09/24 01:20:14;;;;;;;;;;;18.60;41.40;;;;;;4327207;33;20069;-38
2021/09/24 01:22:41;;;;;;;;;;;18.60;40.60;;;;;;4326633;33;19959;-37
2021/09/24 01:25:08;;;;;;;;;;;18.60;41.00;;;;;;4327131;33;19975;-36
2021/09/24 01:27:34;;;;;;;;;;;18.60;40.50;;;;;;4327060;33;19963;-37
2021/09/24 01:30:00;;;;;;;;;;;18.70;40.90;;;;;;4314214;33;19975;-38
2021/09/24 01:32:26;;;;;;;;;;;18.60;40.60;;;;;;4314342;33;19979;-38
2021/09/24 01:34:52;;;;;;;;;;;18.70;40.50;;;;;;4327005;33;19971;-37
2021/09/24 01:37:19;;;;;;;;;;;18.70;40.20;;;;;;4326646;33;19968;-37
2021/09/24 01:39:45;;;;;;;;;;;18.70;39.90;;;;;;4340509;33;20010;-37
2021/09/24 01:42:11;;;;;;;;;;;18.70;39.70;;;;;;4343967;33;20047;-38
2021/09/24 01:44:37;;;;;;;;;;;18.70;39.80;;;;;;4343623;32;19970;-39
2021/09/24 01:47:03;;;;;;;;;;;18.80;39.90;;;;;;4343834;33;20135;-38
2021/09/24 01:49:33;;;;;;;;;;;18.70;39.80;;;;;;4331067;33;19967;-38
2021/09/24 01:51:59;;;;;;;;;;;18.70;39.40;;;;;;4328509;33;20400;-38
2021/09/24 01:54:25;;;;;;;;;;;18.70;39.60;;;;;;4329147;33;20454;-37
2021/09/24 01:56:51;;;;;;;;;;;18.70;39.80;;;;;;4297325;33;19995;-39
2021/09/24 01:59:17;;;;;;;;;;;18.70;39.40;;;;;;4296787;33;20066;-40
2021/09/24 02:01:43;;;;;;;;;;;18.70;39.40;;;;;;4297138;33;20007;-38
2021/09/24 02:04:10;;;;;;;;;;;18.70;39.40;;;;;;4297572;33;19968;-37
2021/09/24 02:06:36;;;;;;;;;;;18.70;39.40;;;;;;4296998;33;20620;-39
2021/09/24 02:09:02;;;;;;;;;;;18.80;39.40;;;;;;4297177;33;19971;-38
2021/09/24 02:11:28;;;;;;;;;;;18.80;39.30;;;;;;4297332;33;19968;-38
2021/09/24 02:13:54;;;;;;;;;;;18.80;39.20;;;;;;4285270;33;20051;-38
2021/09/24 02:16:20;;;;;;;;;;;18.80;39.10;;;;;;4297376;33;20064;-38
2021/09/24 02:18:47;;;;;;;;;;;18.80;39.10;;;;;;4303599;33;20018;-38
2021/09/24 02:21:13;;;;;;;;;;;18.80;38.90;;;;;;4311681;33;19979;-40
2021/09/24 02:23:39;;;;;;;;;;;18.90;38.90;;;;;;4299358;33;20520;-38
2021/09/24 02:26:05;;;;;;;;;;;18.90;38.70;;;;;;4314479;33;19991;-37
2021/09/24 02:28:32;;;;;;;;;;;18.90;38.90;;;;;;4339091;32;19983;-39
2021/09/24 02:30:58;;;;;;;;;;;18.90;38.90;;;;;;4346563;32;19976;-37
2021/09/24 02:33:25;;;;;;;;;;;18.90;38.20;;;;;;4346489;33;19994;-38
2021/09/24 02:35:51;;;;;;;;;;;18.80;38.50;;;;;;4346403;32;19987;-37
2021/09/24 02:38:17;;;;;;;;;;;18.80;38.40;;;;;;4346284;33;20049;-37
2021/09/24 02:40:43;;;;;;;;;;;18.80;38.70;;;;;;4346182;33;19976;-39
2021/09/24 02:43:09;;;;;;;;;;;18.80;38.70;;;;;;4345976;33;19991;-38
2021/09/24 02:45:35;;;;;;;;;;;18.80;39.30;;;;;;4346202;32;19990;-38
2021/09/24 02:48:02;;;;;;;;;;;18.80;38.40;;;;;;4345981;32;19973;-38
2021/09/24 02:50:28;;;;;;;;;;;18.80;38.40;;;;;;4346507;33;20053;-38
2021/09/24 02:52:54;;;;;;;;;;;18.90;38.50;;;;;;4345936;33;19974;-38
2021/09/24 02:55:21;;;;;;;;;;;18.90;38.30;;;;;;4345756;32;19959;-38
2021/09/24 02:57:47;;;;;;;;;;;18.90;38.30;;;;;;4332405;33;19989;-38
2021/09/24 03:00:14;;;;;;;;;;;18.90;38.50;;;;;;4345752;33;19971;-37
2021/09/24 03:02:40;;;;;;;;;;;19.00;38.20;;;;;;4346201;33;19970;-38
2021/09/24 03:05:07;;;;;;;;;;;19.00;38.20;;;;;;4345458;32;20388;-37
2021/09/24 03:07:33;;;;;;;;;;;19.10;38.20;;;;;;4345872;32;19979;-38
2021/09/24 03:10:00;;;;;;;;;;;19.00;38.00;;;;;;4346226;33;19986;-38
2021/09/24 03:12:26;;;;;;;;;;;19.10;38.70;;;;;;4345939;32;20101;-38
2021/09/24 03:14:52;;;;;;;;;;;19.00;37.70;;;;;;4345833;32;19967;-38
2021/09/24 03:17:18;;;;;;;;;;;19.00;37.90;;;;;;4345409;32;19962;-37
2021/09/24 03:19:44;;;;;;;;;;;19.00;37.80;;;;;;4358119;32;19988;-37
2021/09/24 03:22:10;;;;;;;;;;;19.00;37.80;;;;;;4360519;32;19979;-37
2021/09/24 03:24:37;;;;;;;;;;;19.00;37.70;;;;;;4360395;32;20410;-36
2021/09/24 03:27:03;;;;;;;;;;;19.00;37.80;;;;;;4360181;32;20386;-37
2021/09/24 03:29:29;;;;;;;;;;;19.00;37.70;;;;;;4360582;32;19966;-38
2021/09/24 03:31:55;;;;;;;;;;;19.00;37.80;;;;;;4360274;32;19959;-38
2021/09/24 03:34:22;;;;;;;;;;;19.00;37.90;;;;;;4360213;32;19994;-39
2021/09/24 03:36:48;;;;;;;;;;;19.00;37.90;;;;;;4359588;32;20381;-38
2021/09/24 03:39:14;;;;;;;;;;;19.10;38.00;;;;;;4360211;32;19963;-38
2021/09/24 03:41:41;;;;;;;;;;;19.10;37.70;;;;;;4360530;32;19963;-38
2021/09/24 03:44:07;;;;;;;;;;;19.10;37.70;;;;;;4360413;32;19978;-39
2021/09/24 03:46:34;;;;;;;;;;;19.20;37.60;;;;;;4346034;32;20022;-38
2021/09/24 03:49:00;;;;;;;;;;;19.20;37.50;;;;;;4350227;32;20390;-38
2021/09/24 03:51:26;;;;;;;;;;;19.20;37.50;;;;;;4345228;33;19990;-37
2021/09/24 03:53:52;;;;;;;;;;;19.10;37.40;;;;;;4345316;33;20014;-38
2021/09/24 03:56:19;;;;;;;;;;;19.20;37.20;;;;;;4345444;33;20403;-38
2021/09/24 03:58:45;;;;;;;;;;;19.20;37.10;;;;;;4345249;33;19970;-38
2021/09/24 04:01:11;;;;;;;;;;;19.20;37.40;;;;;;4330610;33;19982;-37
2021/09/24 04:03:37;;;;;;;;;;;19.30;37.30;;;;;;4344766;33;19979;-37
2021/09/24 04:06:03;;;;;;;;;;;19.30;37.20;;;;;;4345254;33;19970;-37
2021/09/24 04:08:30;;;;;;;;;;;19.40;37.10;;;;;;4344883;33;20412;-37
2021/09/24 04:10:56;;;;;;;;;;;19.40;37.10;;;;;;4331242;33;19963;-38
2021/09/24 04:13:22;;;;;;;;;;;19.40;36.80;;;;;;4344731;33;20055;-38
2021/09/24 04:15:48;;;;;;;;;;;19.50;36.90;;;;;;4344441;33;20451;-38
2021/09/24 04:18:14;;;;;;;;;;;19.50;36.90;;;;;;4344209;33;20407;-38
2021/09/24 04:20:41;;;;;;;;;;;19.50;36.70;;;;;;4344928;33;19959;-38
2021/09/24 04:23:07;;;;;;;;;;;19.60;36.40;;;;;;4344471;33;19967;-38
2021/09/24 04:25:33;;;;;;;;;;;19.60;36.10;;;;;;4344926;33;19959;-44
2021/09/24 04:27:59;;;;;;;;;;;19.60;35.90;;;;;;4344842;33;19959;-38
2021/09/24 04:30:26;;;;;;;;;;;19.70;36.00;;;;;;4344865;33;20064;-38
2021/09/24 04:32:52;;;;;;;;;;;19.80;36.40;;;;;;4344376;33;19967;-38
2021/09/24 04:35:18;;;;;;;;;;;19.80;36.00;;;;;;4344654;33;20049;-39
2021/09/24 04:37:44;;;;;;;;;;;19.80;35.70;;;;;;4330479;33;20006;-37
2021/09/24 04:40:11;;;;;;;;;;;19.90;35.50;;;;;;4344115;33;20394;-38
2021/09/24 04:42:37;;;;;;;;;;;19.90;35.40;;;;;;4330731;33;19989;-37
2021/09/24 04:45:04;;;;;;;;;;;19.90;35.50;;;;;;4344540;33;19970;-38
2021/09/24 04:47:30;;;;;;;;;;;19.90;35.50;;;;;;4344188;32;20387;-38
2021/09/24 04:49:57;;;;;;;;;;;20.00;35.80;;;;;;4359020;32;19970;-38
2021/09/24 04:52:23;;;;;;;;;;;20.00;35.70;;;;;;4358845;32;20417;-37
2021/09/24 04:54:49;;;;;;;;;;;20.00;35.50;;;;;;4358773;32;20463;-39
2021/09/24 04:57:15;;;;;;;;;;;20.10;35.70;;;;;;4358698;32;19967;-39
2021/09/24 04:59:42;;;;;;;;;;;20.10;35.60;;;;;;4358978;32;20454;-38
2021/09/24 05:02:08;;;;;;;;;;;20.20;35.30;;;;;;4358788;32;20423;-38
2021/09/24 05:04:34;;;;;;;;;;;20.20;35.10;;;;;;4358812;32;19966;-37
2021/09/24 05:07:00;;;;;;;;;;;20.30;35.10;;;;;;4358645;32;19965;-37
2021/09/24 05:09:26;;;;;;;;;;;20.30;35.20;;;;;;4358810;32;20158;-37
2021/09/24 05:11:52;;;;;;;;;;;20.40;34.70;;;;;;4345300;32;20457;-37
2021/09/24 05:14:18;;;;;;;;;;;20.30;35.00;;;;;;4358565;32;19966;-37
2021/09/24 05:16:45;;;;;;;;;;;20.30;34.90;;;;;;4358655;32;19969;-38
2021/09/24 05:19:11;;;;;;;;;;;20.30;35.00;;;;;;4358463;32;19958;-38
2021/09/24 05:21:37;;;;;;;;;;;20.30;34.80;;;;;;4358891;32;19990;-38
2021/09/24 05:24:04;;;;;;;;;;;20.30;34.80;;;;;;4359023;32;20037;-37
2021/09/24 05:26:31;;;;;;;;;;;20.30;35.00;;;;;;4358481;32;19962;-38
2021/09/24 05:28:57;;;;;;;;;;;20.40;35.10;;;;;;4358208;32;19959;-37
2021/09/24 05:31:23;;;;;;;;;;;20.40;34.90;;;;;;4358637;32;20006;-39
2021/09/24 05:33:51;;;;;;;;;;;20.40;34.90;;;;;;4358602;32;19969;-38
2021/09/24 05:36:17;;;;;;;;;;;20.40;35.00;;;;;;4358577;32;19974;-38
2021/09/24 05:38:44;;;;;;;;;;;20.40;34.70;;;;;;4358530;32;19962;-38
2021/09/24 05:41:10;;;;;;;;;;;20.50;34.70;;;;;;4358298;32;20432;-38
2021/09/24 05:43:36;;;;;;;;;;;20.50;34.50;;;;;;4358525;32;19969;-38
2021/09/24 05:46:02;;;;;;;;;;;20.60;34.50;;;;;;4358220;32;19977;-38
2021/09/24 05:48:28;;;;;;;;;;;20.60;34.50;;;;;;4352021;32;20045;-38
2021/09/24 05:50:55;;;;;;;;;;;20.50;33.80;;;;;;4343525;33;19962;-39
2021/09/24 05:53:22;;;;;;;;;;;20.50;34.10;;;;;;4343651;33;20039;-37
2021/09/24 05:55:48;;;;;;;;;;;20.50;34.70;;;;;;4343198;33;20417;-39
2021/09/24 05:58:14;;;;;;;;;;;20.60;34.00;;;;;;4342986;33;20386;-37
2021/09/24 06:00:41;;;;;;;;;;;20.60;33.40;;;;;;4343431;33;20058;-38
2021/09/24 06:03:07;;;;;;;;;;;20.50;33.80;;;;;;4343381;33;20487;-38
2021/09/24 06:05:33;;;;;;;;;;;20.50;34.10;;;;;;4329585;33;19978;-37
2021/09/24 06:08:00;;;;;;;;;;;20.60;34.10;;;;;;4343465;33;19990;-38
2021/09/24 06:10:26;;;;;;;;;;;20.60;34.10;;;;;;4343620;33;19985;-37
2021/09/24 06:12:52;;;;;;;;;;;20.60;34.30;;;;;;4329535;33;19962;-38
2021/09/24 06:15:20;;;;;;;;;;;20.60;33.90;;;;;;4343143;33;20351;-38
2021/09/24 06:17:47;;;;;;;;;;;20.60;33.60;;;;;;4343436;33;20035;-38
2021/09/24 06:20:13;;;;;;;;;;;20.60;33.90;;;;;;4343316;33;20034;-38
2021/09/24 06:22:41;;;;;;;;;;;20.60;34.00;;;;;;4343451;33;19958;-37
2021/09/24 06:25:08;;;;;;;;;;;20.50;33.80;;;;;;4343617;33;20075;-36
2021/09/24 06:27:36;;;;;;;;;;;20.50;33.80;;;;;;4329572;33;20039;-38
2021/09/24 06:30:03;;;;;;;;;;;20.40;34.10;;;;;;4343100;33;20430;-38
2021/09/24 06:32:30;;;;;;;;;;;20.40;34.20;;;;;;4343051;33;20128;-38
2021/09/24 06:34:56;;;;;;;;;;;20.30;34.50;;;;;;4343099;33;20030;-37
2021/09/24 06:37:22;;;;;;;;;;;20.30;34.50;;;;;;4342904;33;20400;-38
2021/09/24 06:39:48;;;;;;;;;;;20.20;34.60;;;;;;4342649;33;20038;-38
2021/09/24 06:42:15;;;;;;;;;;;20.10;34.80;;;;;;4342460;33;19974;-39
2021/09/24 06:44:41;;;;;;;;;;;20.00;35.30;;;;;;4343677;33;19967;-38
2021/09/24 06:47:07;;;;;;;;;;;20.00;36.70;;;;;;4329419;33;20147;-39
2021/09/24 06:49:35;;;;;;;;;;;19.80;38.40;;;;;;4342383;32;19974;-38
2021/09/24 06:52:01;;;;;;;;;;;19.70;38.90;;;;;;4357807;32;20434;-39
2021/09/24 06:54:27;;;;;;;;;;;19.60;40.30;;;;;;4344338;32;20386;-38
2021/09/24 06:56:53;;;;;;;;;;;19.40;41.40;;;;;;4358038;32;19967;-38
2021/09/24 06:59:20;;;;;;;;;;;19.30;42.40;;;;;;4357769;32;20060;-38
2021/09/24 07:01:46;;;;;;;;;;;19.20;43.20;;;;;;4357714;32;20044;-38
2021/09/24 07:04:12;;;;;;;;;;;19.00;43.50;;;;;;4357692;32;20426;-36
2021/09/24 07:06:39;;;;;;;;;;;18.80;44.30;;;;;;4344436;32;19974;-36
2021/09/24 07:09:06;;;;;;;;;;;18.50;44.20;;;;;;4357811;32;20004;-40
2021/09/24 07:11:33;;;;;;;;;;;18.40;45.10;;;;;;4359784;32;19999;-35
2021/09/24 07:13:59;;;;;;;;;;;18.20;45.70;;;;;;4360175;32;20550;-38
2021/09/24 07:16:25;;;;;;;;;;;18.00;46.10;;;;;;4360533;32;20406;-38
2021/09/24 07:18:52;;;;;;;;;;;17.90;46.70;;;;;;4360244;32;20025;-38
2021/09/24 07:21:18;;;;;;;;;;;17.80;47.10;;;;;;4360141;32;19963;-38
2021/09/24 07:23:44;;;;;;;;;;;17.80;47.50;;;;;;4360666;32;19986;-37
2021/09/24 07:26:10;;;;;;;;;;;17.80;47.70;;;;;;4360507;32;19955;-39
2021/09/24 07:28:37;;;;;;;;;;;17.70;47.80;;;;;;4359935;32;19979;-38
2021/09/24 07:31:03;;;;;;;;;;;17.70;48.30;;;;;;4360297;32;20038;-39
2021/09/24 07:33:29;;;;;;;;;;;17.70;48.30;;;;;;4360208;32;20424;-39
2021/09/24 07:35:55;;;;;;;;;;;17.60;48.50;;;;;;4360353;32;20082;-38
2021/09/24 07:38:22;;;;;;;;;;;17.70;48.70;;;;;;4360378;32;19985;-38
2021/09/24 07:40:48;;;;;;;;;;;17.70;48.50;;;;;;4359754;32;20117;-38
2021/09/24 07:43:15;;;;;;;;;;;17.60;48.90;;;;;;4360208;32;19972;-38
2021/09/24 07:45:41;;;;;;;;;;;17.60;49.00;;;;;;4360385;32;20062;-38
2021/09/24 07:48:07;;;;;;;;;;;17.60;49.10;;;;;;4356253;32;20017;-37
2021/09/24 07:50:33;;;;;;;;;;;17.70;49.30;;;;;;4345576;33;19966;-38
2021/09/24 07:52:59;;;;;;;;;;;17.70;48.80;;;;;;4344828;33;20039;-38
2021/09/24 07:55:26;;;;;;;;;;;17.80;49.10;;;;;;4345323;33;19971;-39
2021/09/24 07:57:55;;;;;;;;;;;17.80;48.90;;;;;;4345303;33;19966;-38
2021/09/24 08:00:26;;;;;;;;;;;17.70;49.10;;;;;;4345019;33;20030;-37
2021/09/24 08:02:54;;;;;;;;;;;17.70;49.50;;;;;;4344792;33;19974;-37
2021/09/24 08:05:20;;;;;;;;;;;17.80;49.20;;;;;;4344963;33;19978;-38
2021/09/24 08:07:47;;;;;;;;;;;17.70;49.40;;;;;;4344535;33;19959;-38
2021/09/24 08:10:13;;;;;;;;;;;17.80;48.80;;;;;;4331529;33;19990;-37
2021/09/24 08:12:39;;;;;;;;;;;17.80;49.10;;;;;;4344981;33;20492;-37
2021/09/24 08:15:07;;;;;;;;;;;17.80;49.10;;;;;;4331245;33;20048;-38
2021/09/24 08:17:33;;;;;;;;;;;17.80;49.10;;;;;;4344963;33;20396;-41
2021/09/24 08:19:59;;;;;;;;;;;17.80;49.10;;;;;;4344417;33;19971;-37
2021/09/24 08:22:26;;;;;;;;;;;17.90;49.30;;;;;;4343697;32;20419;-37
2021/09/24 08:24:52;;;;;;;;;;;18.00;49.60;;;;;;4344336;33;19971;-38
2021/09/24 08:27:18;;;;;;;;;;;18.10;49.20;;;;;;4344659;33;20415;-37
2021/09/24 08:29:44;;;;;;;;;;;18.10;49.00;;;;;;4344782;33;20060;-38
2021/09/24 08:32:11;;;;;;;;;;;18.30;49.10;;;;;;4344514;33;19966;-37
2021/09/24 08:34:37;;;;;;;;;;;18.30;48.00;;;;;;4344193;33;19978;-37
2021/09/24 08:37:03;;;;;;;;;;;18.30;48.60;;;;;;4344213;33;19967;-37
2021/09/24 08:39:29;;;;;;;;;;;18.50;48.60;;;;;;4344470;33;20048;-37
2021/09/24 08:41:56;;;;;;;;;;;18.60;48.70;;;;;;4330482;33;20459;-37
2021/09/24 08:44:23;;;;;;;;;;;18.70;48.20;;;;;;4344028;33;20469;-38
2021/09/24 08:46:49;;;;;;;;;;;18.70;47.70;;;;;;4344493;33;20495;-36
2021/09/24 08:49:18;;;;;;;;;;;18.80;47.00;;;;;;4323135;33;20005;-37
2021/09/24 08:51:45;;;;;;;;;;;18.80;47.30;;;;;;4315512;33;19970;-37
2021/09/24 08:54:11;;;;;;;;;;;18.80;47.20;;;;;;4327016;33;19967;-38
2021/09/24 08:56:37;;;;;;;;;;;18.90;47.20;;;;;;4314686;33;19974;-37
2021/09/24 08:59:03;;;;;;;;;;;19.00;46.80;;;;;;4327021;33;20534;-38
2021/09/24 09:01:30;;;;;;;;;;;19.10;46.70;;;;;;4327050;33;19970;-37
2021/09/24 09:03:57;;;;;;;;;;;19.30;46.10;;;;;;4326988;33;19975;-37
2021/09/24 09:06:24;;;;;;;;;;;19.30;45.50;;;;;;4326789;33;20286;-38
2021/09/24 09:08:50;;;;;;;;;;;19.40;44.90;;;;;;4314785;33;20009;-37
2021/09/24 09:11:20;;;;;;;;;;;19.50;44.10;;;;;;4326856;33;19962;-37
2021/09/24 09:13:54;;;;;;;;;;;19.60;44.10;;;;;;4327296;33;19974;-37
2021/09/24 09:16:36;;;;;;;;;;;19.70;43.90;;;;;;4326628;33;19971;-37
2021/09/24 09:19:11;;;;;;;;;;;19.80;43.00;;;;;;4326500;33;19990;-37
2021/09/24 09:21:41;;;;;;;;;;;19.90;43.00;;;;;;4326890;33;19970;-36
2021/09/24 09:24:14;;;;;;;;;;;19.90;41.90;;;;;;4326367;33;20361;-36
2021/09/24 09:26:41;;;;;;;;;;;20.00;42.30;;;;;;4341825;32;20540;-37
2021/09/24 09:29:09;;;;;;;;;;;20.00;41.50;;;;;;4358797;32;19974;-36
2021/09/24 09:31:35;;;;;;;;;;;20.10;41.30;;;;;;4358201;32;20005;-36
2021/09/24 09:34:04;;;;;;;;;;;20.10;41.00;;;;;;4358186;32;19978;-37
2021/09/24 09:36:37;;;;;;;;;;;20.20;41.00;;;;;;4358466;32;20148;-38
2021/09/24 09:39:11;;;;;;;;;;;20.30;41.00;;;;;;4358169;32;19970;-36
2021/09/24 09:41:49;;;;;;;;;;;20.40;40.70;;;;;;4358320;32;19958;-38
2021/09/24 09:44:25;;;;;;;;;;;20.50;40.60;;;;;;4344628;32;20421;-36
2021/09/24 09:46:51;;;;;;;;;;;20.60;39.90;;;;;;4358514;32;19971;-37
2021/09/24 09:49:18;;;;;;;;;;;20.50;39.80;;;;;;4358339;32;19969;-36
2021/09/24 09:51:45;;;;;;;;;;;20.50;40.20;;;;;;4358099;32;19966;-37
2021/09/24 09:54:25;;;;;;;;;;;20.50;40.60;;;;;;4358273;32;20075;-37
2021/09/24 09:56:52;;;;;;;;;;;20.40;40.30;;;;;;4358370;32;20438;-38
2021/09/24 09:59:21;;;;;;;;;;;20.40;40.70;;;;;;4358618;32;20060;-37
2021/09/24 10:01:48;;;;;;;;;;;20.30;40.60;;;;;;4310818;33;19986;-37
2021/09/24 10:04:14;;;;;;;;;;;20.20;40.70;;;;;;4299654;33;20082;-37
2021/09/24 10:06:40;;;;;;;;;;;20.20;40.70;;;;;;4311270;33;19983;-37
2021/09/24 10:09:09;;;;;;;;;;;20.00;41.30;;;;;;4311611;33;20007;-37
2021/09/24 10:11:37;;;;;;;;;;;19.90;41.00;;;;;;4311318;33;20431;-37
2021/09/24 10:14:12;;;;;;;;;;;19.80;41.40;;;;;;4310912;33;19987;-37
2021/09/24 10:16:40;;;;;;;;;;;19.70;42.10;;;;;;4299496;33;20032;-37
2021/09/24 10:19:07;;;;;;;;;;;19.60;42.50;;;;;;4311230;33;19991;-38
2021/09/24 10:21:33;;;;;;;;;;;19.50;42.90;;;;;;4311333;33;19986;-37
2021/09/24 10:23:59;;;;;;;;;;;19.40;43.30;;;;;;4299010;33;19975;-38
2021/09/24 10:26:30;;;;;;;;;;;19.40;43.80;;;;;;4311197;33;20058;-36
2021/09/24 10:29:08;;;;;;;;;;;19.30;44.40;;;;;;4310871;33;19967;-38
2021/09/24 10:31:41;;;;;;;;;;;19.20;44.20;;;;;;4311178;33;19967;-37
2021/09/24 10:34:08;;;;;;;;;;;19.10;44.40;;;;;;4311412;33;19990;-37
2021/09/24 10:36:34;;;;;;;;;;;19.00;45.10;;;;;;4299234;33;20014;-37
2021/09/24 10:39:00;;;;;;;;;;;19.00;45.50;;;;;;4324357;33;19991;-37
2021/09/24 10:41:26;;;;;;;;;;;19.00;46.00;;;;;;4343177;32;19974;-37
2021/09/24 10:43:54;;;;;;;;;;;19.00;46.30;;;;;;4342866;32;19971;-38
2021/09/24 10:46:24;;;;;;;;;;;19.00;46.30;;;;;;4343211;33;19975;-37
2021/09/24 10:49:12;;;;;;;;;;;18.90;46.80;;;;;;4345987;32;20049;-39
2021/09/24 10:51:39;;;;;;;;;;;19.00;46.80;;;;;;4345953;33;19975;-37
2021/09/24 10:54:16;;;;;;;;;;;18.90;46.20;;;;;;4332112;33;20128;-39
2021/09/24 10:56:42;;;;;;;;;;;18.70;46.60;;;;;;4345825;33;20000;-39
2021/09/24 10:59:19;;;;;;;;;;;18.60;47.00;;;;;;4319888;33;20427;-39
2021/09/24 11:01:46;;;;;;;;;;;18.50;47.50;;;;;;4345479;33;19978;-39
2021/09/24 11:04:13;;;;;;;;;;;18.40;47.80;;;;;;4345360;33;19974;-38
2021/09/24 11:06:40;;;;;;;;;;;18.30;48.10;;;;;;4345221;33;20153;-39
2021/09/24 11:09:08;;;;;;;;;;;18.20;48.20;;;;;;4345427;33;19973;-38
2021/09/24 11:11:35;;;;;;;;;;;18.10;48.20;;;;;;4345295;33;19951;-39
2021/09/24 11:14:21;;;;;;;;;;;17.90;48.60;;;;;;4345884;33;19982;-38
2021/09/24 11:16:50;;;;;;;;;;;17.80;48.90;;;;;;4345186;33;20571;-39
2021/09/24 11:19:30;;;;;;;;;;;17.70;49.40;;;;;;4345009;33;20488;-39
2021/09/24 11:21:58;;;;;;;;;;;17.70;49.50;;;;;;4345582;33;19966;-40
2021/09/24 11:24:26;;;;;;;;;;;17.60;49.80;;;;;;4345274;33;20391;-39
2021/09/24 11:26:53;;;;;;;;;;;17.50;50.10;;;;;;4331932;33;19963;-38
2021/09/24 11:29:22;;;;;;;;;;;17.50;49.90;;;;;;4345306;33;20086;-39
2021/09/24 11:32:00;;;;;;;;;;;17.40;50.90;;;;;;4331832;33;19995;-38
2021/09/24 11:34:39;;;;;;;;;;;17.40;50.50;;;;;;4345615;33;19993;-39
2021/09/24 11:37:18;;;;;;;;;;;17.30;50.60;;;;;;4345037;33;19970;-39
2021/09/24 11:39:45;;;;;;;;;;;17.30;51.00;;;;;;4331502;33;19963;-40
2021/09/24 11:42:13;;;;;;;;;;;17.30;51.50;;;;;;4345278;33;19966;-40
2021/09/24 11:44:50;;;;;;;;;;;17.30;51.70;;;;;;4345104;33;20026;-39
2021/09/24 11:47:26;;;;;;;;;;;17.20;51.40;;;;;;4344726;33;20433;-40
2021/09/24 11:50:05;;;;;;;;;;;17.20;51.60;;;;;;4344707;33;20466;-40
2021/09/24 11:52:41;;;;;;;;;;;17.20;51.70;;;;;;4344761;33;19967;-37
2021/09/24 11:55:18;;;;;;;;;;;17.20;51.70;;;;;;4345149;33;19970;-40
2021/09/24 11:57:55;;;;;;;;;;;17.10;51.70;;;;;;4344752;32;20575;-40
2021/09/24 12:00:23;;;;;;;;;;;17.10;51.80;;;;;;4345152;33;20411;-39
2021/09/24 12:02:49;;;;;;;;;;;17.20;51.90;;;;;;4344990;33;19967;-41
2021/09/24 12:05:15;;;;;;;;;;;17.20;51.70;;;;;;4331033;33;19959;-39
2021/09/24 12:07:50;;;;;;;;;;;17.20;51.50;;;;;;4344654;33;19982;-40
2021/09/24 12:10:16;;;;;;;;;;;17.20;51.60;;;;;;4344726;33;19969;-39
2021/09/24 12:12:44;;;;;;;;;;;17.10;51.40;;;;;;4344513;33;19961;-39
2021/09/24 12:15:10;;;;;;;;;;;17.10;51.30;;;;;;4344541;33;19975;-39
2021/09/24 12:17:37;;;;;;;;;;;17.20;51.40;;;;;;4344824;33;19979;-39
2021/09/24 12:20:03;;;;;;;;;;;17.30;51.60;;;;;;4344232;33;20368;-37
2021/09/24 12:22:29;;;;;;;;;;;17.30;51.40;;;;;;4344828;33;19971;-39
2021/09/24 12:24:56;;;;;;;;;;;17.30;50.70;;;;;;4330473;33;19966;-38
2021/09/24 12:27:30;;;;;;;;;;;17.40;50.70;;;;;;4330809;33;20002;-38
2021/09/24 12:30:18;;;;;;;;;;;17.40;50.60;;;;;;4344572;33;19998;-39
2021/09/24 12:32:44;;;;;;;;;;;17.40;50.60;;;;;;4344312;33;19966;-39
2021/09/24 12:35:12;;;;;;;;;;;17.50;50.70;;;;;;4344238;33;20002;-38
2021/09/24 12:37:40;;;;;;;;;;;17.50;49.50;;;;;;4344084;32;20490;-38
2021/09/24 12:40:17;;;;;;;;;;;17.50;49.60;;;;;;4344576;33;19966;-38
2021/09/24 12:42:45;;;;;;;;;;;17.50;49.30;;;;;;4344088;33;20047;-38
2021/09/24 12:45:24;;;;;;;;;;;17.50;48.80;;;;;;4344488;33;19978;-39
2021/09/24 12:47:50;;;;;;;;;;;17.40;49.20;;;;;;4344100;33;19972;-39
2021/09/24 12:50:16;;;;;;;;;;;17.40;49.40;;;;;;4344029;32;19982;-38
2021/09/24 12:52:43;;;;;;;;;;;17.40;49.60;;;;;;4342762;33;20038;-39
2021/09/24 12:55:10;;;;;;;;;;;17.40;49.60;;;;;;4344052;32;19967;-38
2021/09/24 12:57:36;;;;;;;;;;;17.40;49.80;;;;;;4344045;32;20048;-38
2021/09/24 13:00:09;;;;;;;;;;;17.40;49.60;;;;;;4344140;32;20379;-39
2021/09/24 13:02:36;;;;;;;;;;;17.40;49.40;;;;;;4343812;32;20005;-38
2021/09/24 13:05:03;;;;;;;;;;;17.40;48.90;;;;;;4343720;32;19971;-39
2021/09/24 13:07:32;;;;;;;;;;;17.40;49.20;;;;;;4344183;32;20424;-38
2021/09/24 13:10:09;;;;;;;;;;;17.40;49.20;;;;;;4326536;33;19978;-38
2021/09/24 13:12:37;;;;;;;;;;;17.40;48.60;;;;;;4326820;33;19975;-38
2021/09/24 13:15:04;;;;;;;;;;;17.40;49.20;;;;;;4326836;33;20366;-39
2021/09/24 13:17:30;;;;;;;;;;;17.40;48.60;;;;;;4327168;33;19975;-38
2021/09/24 13:19:57;;;;;;;;;;;17.40;48.60;;;;;;4313807;33;20094;-39
2021/09/24 13:22:23;;;;;;;;;;;17.40;48.30;;;;;;4326129;33;19970;-38
2021/09/24 13:24:49;;;;;;;;;;;17.50;48.30;;;;;;4326394;33;19990;-37
2021/09/24 13:27:15;;;;;;;;;;;17.50;48.30;;;;;;4326550;33;20076;-38
2021/09/24 13:29:45;;;;;;;;;;;17.60;47.70;;;;;;4326366;33;19967;-37
2021/09/24 13:32:14;;;;;;;;;;;17.60;47.10;;;;;;4326243;33;20059;-38
2021/09/24 13:34:41;;;;;;;;;;;17.60;47.30;;;;;;4326274;33;20406;-36
2021/09/24 13:37:08;;;;;;;;;;;17.60;47.30;;;;;;4326216;33;20029;-38
2021/09/24 13:39:35;;;;;;;;;;;17.60;47.10;;;;;;4314327;33;20058;-39
2021/09/24 13:42:02;;;;;;;;;;;17.60;47.10;;;;;;4342662;33;20053;-39
2021/09/24 13:44:28;;;;;;;;;;;17.70;47.30;;;;;;4343086;32;20026;-38
2021/09/24 13:46:54;;;;;;;;;;;17.80;47.10;;;;;;4343502;32;19974;-38
2021/09/24 13:49:21;;;;;;;;;;;17.80;46.60;;;;;;4342691;32;19966;-38
2021/09/24 13:51:47;;;;;;;;;;;17.80;46.50;;;;;;4326002;33;19974;-37
2021/09/24 13:54:15;;;;;;;;;;;17.80;46.60;;;;;;4326045;33;19970;-38
2021/09/24 13:56:42;;;;;;;;;;;17.80;46.80;;;;;;4325992;33;20068;-38
2021/09/24 13:59:08;;;;;;;;;;;17.80;46.90;;;;;;4326014;33;19974;-38
2021/09/24 14:01:38;;;;;;;;;;;17.90;46.30;;;;;;4325943;33;19971;-38
2021/09/24 14:04:05;;;;;;;;;;;17.90;46.70;;;;;;4314452;33;20377;-39
2021/09/24 14:06:31;;;;;;;;;;;17.90;46.80;;;;;;4325910;33;19967;-38
2021/09/24 14:08:58;;;;;;;;;;;17.90;47.10;;;;;;4326022;33;20014;-38
2021/09/24 14:11:24;;;;;;;;;;;17.90;46.90;;;;;;4325582;33;20006;-38
2021/09/24 14:13:52;;;;;;;;;;;17.80;46.90;;;;;;4325800;33;20432;-39
2021/09/24 14:16:18;;;;;;;;;;;17.80;46.80;;;;;;4325845;33;19964;-38
2021/09/24 14:18:45;;;;;;;;;;;17.80;46.80;;;;;;4326286;33;19975;-39